Terminal Aerodrome Forecast
Issued by NWS North Platte, NE

Home | Current Version | Previous Version | Graphics & Text | Print | Product List | Glossary On
Versions: 1 2 3 4 5 6 7 8 9 10 11 12 13 14 15 16 17 18 19 20
000
FTUS43 KLBF 290500
TAFVTN
TAF
KVTN 290533Z 2906/3006 36006KT P6SM SCT060
     FM290700 04006KT P6SM SCT007 OVC015
      TEMPO 2907/2909 4SM BR BKN006
     FM290900 05005KT 5SM BR OVC006
     FM291600 13012G18KT P6SM -SHRA SCT015 OVC050=

USA.gov is the U.S. government's official web portal to all federal, state and local government web resources and services.